sensor_id;sensor_type;location;lat;lon;timestamp;temperature;humidity
40053;DHT22;25758;48.200;16.338;2022-09-09T00:01:04;19.40;99.90
40053;DHT22;25758;48.200;16.338;2022-09-09T00:03:57;19.40;99.90
40053;DHT22;25758;48.200;16.338;2022-09-09T00:06:30;19.40;99.60
40053;DHT22;25758;48.200;16.338;2022-09-09T00:09:17;19.40;99.80
40053;DHT22;25758;48.200;16.338;2022-09-09T00:11:47;19.40;99.60
40053;DHT22;25758;48.200;16.338;2022-09-09T00:16:49;19.40;99.40
40053;DHT22;25758;48.200;16.338;2022-09-09T00:19:22;19.40;99.50
40053;DHT22;25758;48.200;16.338;2022-09-09T00:24:41;19.30;99.50
40053;DHT22;25758;48.200;16.338;2022-09-09T00:30:22;19.10;99.90
40053;DHT22;25758;48.200;16.338;2022-09-09T00:33:11;19.00;99.90
40053;DHT22;25758;48.200;16.338;2022-09-09T00:35:47;19.00;99.90
40053;DHT22;25758;48.200;16.338;2022-09-09T00:38:15;18.90;99.90
40053;DHT22;25758;48.200;16.338;2022-09-09T00:43:38;19.00;99.90
40053;DHT22;25758;48.200;16.338;2022-09-09T00:51:46;19.10;99.80
40053;DHT22;25758;48.200;16.338;2022-09-09T00:57:26;19.10;99.40
40053;DHT22;25758;48.200;16.338;2022-09-09T01:03:15;19.10;99.30
40053;DHT22;25758;48.200;16.338;2022-09-09T01:11:10;19.10;99.40
40053;DHT22;25758;48.200;16.338;2022-09-09T01:13:41;19.10;99.30
40053;DHT22;25758;48.200;16.338;2022-09-09T01:16:10;19.10;99.20
40053;DHT22;25758;48.200;16.338;2022-09-09T01:18:44;19.20;99.30
40053;DHT22;25758;48.200;16.338;2022-09-09T01:26:39;19.10;99.30
40053;DHT22;25758;48.200;16.338;2022-09-09T01:29:12;19.10;99.20
40053;DHT22;25758;48.200;16.338;2022-09-09T01:31:56;19.10;99.40
40053;DHT22;25758;48.200;16.338;2022-09-09T01:34:25;19.10;99.40
40053;DHT22;25758;48.200;16.338;2022-09-09T01:37:02;19.00;99.30
40053;DHT22;25758;48.200;16.338;2022-09-09T01:39:30;19.00;99.50
40053;DHT22;25758;48.200;16.338;2022-09-09T01:41:56;18.90;99.50
40053;DHT22;25758;48.200;16.338;2022-09-09T01:44:23;18.90;99.60
40053;DHT22;25758;48.200;16.338;2022-09-09T01:46:50;18.90;99.60
40053;DHT22;25758;48.200;16.338;2022-09-09T01:49:16;18.90;99.60
40053;DHT22;25758;48.200;16.338;2022-09-09T01:51:43;18.90;99.80
40053;DHT22;25758;48.200;16.338;2022-09-09T01:54:10;18.80;99.60
40053;DHT22;25758;48.200;16.338;2022-09-09T01:59:24;18.80;99.60
40053;DHT22;25758;48.200;16.338;2022-09-09T02:02:01;18.90;99.70
40053;DHT22;25758;48.200;16.338;2022-09-09T02:04:38;18.90;99.70
40053;DHT22;25758;48.200;16.338;2022-09-09T02:07:10;18.90;99.60
40053;DHT22;25758;48.200;16.338;2022-09-09T02:09:41;18.80;99.60
40053;DHT22;25758;48.200;16.338;2022-09-09T02:12:14;18.80;99.60
40053;DHT22;25758;48.200;16.338;2022-09-09T02:14:45;18.80;99.80
40053;DHT22;25758;48.200;16.338;2022-09-09T02:17:16;18.80;99.90
40053;DHT22;25758;48.200;16.338;2022-09-09T02:19:49;18.70;99.90
40053;DHT22;25758;48.200;16.338;2022-09-09T02:22:19;18.60;99.90
40053;DHT22;25758;48.200;16.338;2022-09-09T02:24:47;18.30;99.90
40053;DHT22;25758;48.200;16.338;2022-09-09T02:27:16;18.10;99.90
40053;DHT22;25758;48.200;16.338;2022-09-09T02:29:45;17.90;99.90
40053;DHT22;25758;48.200;16.338;2022-09-09T02:32:15;17.80;99.90
40053;DHT22;25758;48.200;16.338;2022-09-09T02:34:47;17.60;99.90
40053;DHT22;25758;48.200;16.338;2022-09-09T02:37:17;17.50;99.90
40053;DHT22;25758;48.200;16.338;2022-09-09T02:39:43;17.50;99.90
40053;DHT22;25758;48.200;16.338;2022-09-09T02:42:09;17.50;99.90
40053;DHT22;25758;48.200;16.338;2022-09-09T02:44:35;17.50;99.90
40053;DHT22;25758;48.200;16.338;2022-09-09T02:50:23;17.60;99.90
40053;DHT22;25758;48.200;16.338;2022-09-09T02:53:02;17.60;99.90
40053;DHT22;25758;48.200;16.338;2022-09-09T02:55:44;17.50;99.90
40053;DHT22;25758;48.200;16.338;2022-09-09T02:58:13;17.50;99.90
40053;DHT22;25758;48.200;16.338;2022-09-09T03:00:44;17.50;99.90
40053;DHT22;25758;48.200;16.338;2022-09-09T03:03:11;17.40;99.90
40053;DHT22;25758;48.200;16.338;2022-09-09T03:05:37;17.30;99.90
40053;DHT22;25758;48.200;16.338;2022-09-09T03:08:04;17.30;99.90
40053;DHT22;25758;48.200;16.338;2022-09-09T03:10:31;17.20;99.90
40053;DHT22;25758;48.200;16.338;2022-09-09T03:12:57;17.30;99.90
40053;DHT22;25758;48.200;16.338;2022-09-09T03:15:23;17.30;99.90
40053;DHT22;25758;48.200;16.338;2022-09-09T03:17:48;17.40;99.90
40053;DHT22;25758;48.200;16.338;2022-09-09T03:20:14;17.40;99.90
40053;DHT22;25758;48.200;16.338;2022-09-09T03:22:39;17.50;99.90
40053;DHT22;25758;48.200;16.338;2022-09-09T03:25:06;17.60;99.90
40053;DHT22;25758;48.200;16.338;2022-09-09T03:27:32;17.60;99.90
40053;DHT22;25758;48.200;16.338;2022-09-09T03:29:58;17.70;99.90
40053;DHT22;25758;48.200;16.338;2022-09-09T03:32:24;17.70;99.90
40053;DHT22;25758;48.200;16.338;2022-09-09T03:34:51;17.70;99.90
40053;DHT22;25758;48.200;16.338;2022-09-09T03:37:18;17.70;99.90
40053;DHT22;25758;48.200;16.338;2022-09-09T03:39:44;17.80;99.90
40053;DHT22;25758;48.200;16.338;2022-09-09T03:42:12;17.80;99.90
40053;DHT22;25758;48.200;16.338;2022-09-09T03:44:39;17.80;99.90
40053;DHT22;25758;48.200;16.338;2022-09-09T03:47:06;17.80;99.90
40053;DHT22;25758;48.200;16.338;2022-09-09T03:49:32;17.90;99.90
40053;DHT22;25758;48.200;16.338;2022-09-09T03:51:57;17.90;99.90
40053;DHT22;25758;48.200;16.338;2022-09-09T03:54:25;17.90;99.90
40053;DHT22;25758;48.200;16.338;2022-09-09T03:56:51;17.90;99.90
40053;DHT22;25758;48.200;16.338;2022-09-09T03:59:16;18.00;99.90
40053;DHT22;25758;48.200;16.338;2022-09-09T04:01:42;18.00;99.90
40053;DHT22;25758;48.200;16.338;2022-09-09T04:04:09;18.00;99.90
40053;DHT22;25758;48.200;16.338;2022-09-09T04:06:35;18.00;99.90
40053;DHT22;25758;48.200;16.338;2022-09-09T04:09:00;18.00;99.90
40053;DHT22;25758;48.200;16.338;2022-09-09T04:11:28;18.00;99.90
40053;DHT22;25758;48.200;16.338;2022-09-09T04:13:54;18.00;99.90
40053;DHT22;25758;48.200;16.338;2022-09-09T04:16:20;18.00;99.90
40053;DHT22;25758;48.200;16.338;2022-09-09T04:18:45;18.00;99.90
40053;DHT22;25758;48.200;16.338;2022-09-09T04:21:11;18.00;99.90
40053;DHT22;25758;48.200;16.338;2022-09-09T04:23:38;18.00;99.90
40053;DHT22;25758;48.200;16.338;2022-09-09T04:26:04;18.00;99.90
40053;DHT22;25758;48.200;16.338;2022-09-09T04:28:32;18.00;99.90
40053;DHT22;25758;48.200;16.338;2022-09-09T04:31:11;18.00;99.90
40053;DHT22;25758;48.200;16.338;2022-09-09T04:33:38;18.00;99.90
40053;DHT22;25758;48.200;16.338;2022-09-09T04:36:04;18.00;99.90
40053;DHT22;25758;48.200;16.338;2022-09-09T04:38:30;18.00;99.90
40053;DHT22;25758;48.200;16.338;2022-09-09T04:40:56;18.00;99.90
40053;DHT22;25758;48.200;16.338;2022-09-09T04:43:22;18.00;99.90
40053;DHT22;25758;48.200;16.338;2022-09-09T04:45:49;18.00;99.90
40053;DHT22;25758;48.200;16.338;2022-09-09T04:48:16;18.00;99.90
40053;DHT22;25758;48.200;16.338;2022-09-09T04:50:42;18.00;99.90
40053;DHT22;25758;48.200;16.338;2022-09-09T04:53:07;18.00;99.90
40053;DHT22;25758;48.200;16.338;2022-09-09T04:55:34;17.90;99.90
40053;DHT22;25758;48.200;16.338;2022-09-09T04:58:08;17.70;99.90
40053;DHT22;25758;48.200;16.338;2022-09-09T05:00:34;17.70;99.90
40053;DHT22;25758;48.200;16.338;2022-09-09T05:03:05;17.50;99.90
40053;DHT22;25758;48.200;16.338;2022-09-09T05:05:32;17.50;99.90
40053;DHT22;25758;48.200;16.338;2022-09-09T05:08:05;17.50;99.90
40053;DHT22;25758;48.200;16.338;2022-09-09T05:10:33;17.40;99.90
40053;DHT22;25758;48.200;16.338;2022-09-09T05:12:58;17.30;99.90
40053;DHT22;25758;48.200;16.338;2022-09-09T05:15:24;17.30;99.90
40053;DHT22;25758;48.200;16.338;2022-09-09T05:17:50;17.40;99.90
40053;DHT22;25758;48.200;16.338;2022-09-09T05:20:17;17.40;99.90
40053;DHT22;25758;48.200;16.338;2022-09-09T05:22:43;17.40;99.90
40053;DHT22;25758;48.200;16.338;2022-09-09T05:25:09;17.50;99.90
40053;DHT22;25758;48.200;16.338;2022-09-09T05:27:35;17.40;99.90
40053;DHT22;25758;48.200;16.338;2022-09-09T05:30:00;17.30;99.90
40053;DHT22;25758;48.200;16.338;2022-09-09T05:32:26;17.20;99.90
40053;DHT22;25758;48.200;16.338;2022-09-09T05:34:51;17.20;99.90
40053;DHT22;25758;48.200;16.338;2022-09-09T05:37:18;17.30;99.90
40053;DHT22;25758;48.200;16.338;2022-09-09T05:39:43;17.40;99.90
40053;DHT22;25758;48.200;16.338;2022-09-09T05:42:09;17.30;99.90
40053;DHT22;25758;48.200;16.338;2022-09-09T05:44:35;17.30;99.90
40053;DHT22;25758;48.200;16.338;2022-09-09T05:47:01;17.30;99.90
40053;DHT22;25758;48.200;16.338;2022-09-09T05:49:26;17.20;99.90
40053;DHT22;25758;48.200;16.338;2022-09-09T05:51:52;17.10;99.90
40053;DHT22;25758;48.200;16.338;2022-09-09T05:54:18;17.00;99.90
40053;DHT22;25758;48.200;16.338;2022-09-09T05:56:44;17.00;99.90
40053;DHT22;25758;48.200;16.338;2022-09-09T05:59:10;17.00;99.90
40053;DHT22;25758;48.200;16.338;2022-09-09T06:01:37;17.00;99.90
40053;DHT22;25758;48.200;16.338;2022-09-09T06:04:06;17.00;99.90
40053;DHT22;25758;48.200;16.338;2022-09-09T06:06:34;17.00;99.90
40053;DHT22;25758;48.200;16.338;2022-09-09T06:09:05;16.90;99.90
40053;DHT22;25758;48.200;16.338;2022-09-09T06:11:35;16.80;99.90
40053;DHT22;25758;48.200;16.338;2022-09-09T06:14:02;16.90;99.90
40053;DHT22;25758;48.200;16.338;2022-09-09T06:16:28;16.90;99.90
40053;DHT22;25758;48.200;16.338;2022-09-09T06:18:55;17.00;99.90
40053;DHT22;25758;48.200;16.338;2022-09-09T06:21:30;17.10;99.90
40053;DHT22;25758;48.200;16.338;2022-09-09T06:23:56;17.20;99.90
40053;DHT22;25758;48.200;16.338;2022-09-09T06:26:36;17.30;99.90
40053;DHT22;25758;48.200;16.338;2022-09-09T06:29:03;17.40;99.90
40053;DHT22;25758;48.200;16.338;2022-09-09T06:31:30;17.50;99.90
40053;DHT22;25758;48.200;16.338;2022-09-09T06:33:57;17.60;99.90
40053;DHT22;25758;48.200;16.338;2022-09-09T06:36:31;17.60;99.90
40053;DHT22;25758;48.200;16.338;2022-09-09T06:38:57;17.70;99.90
40053;DHT22;25758;48.200;16.338;2022-09-09T06:41:25;17.80;99.90
40053;DHT22;25758;48.200;16.338;2022-09-09T06:43:52;17.90;99.90
40053;DHT22;25758;48.200;16.338;2022-09-09T06:46:18;18.00;99.90
40053;DHT22;25758;48.200;16.338;2022-09-09T06:48:45;18.00;99.90
40053;DHT22;25758;48.200;16.338;2022-09-09T06:51:19;18.10;99.90
40053;DHT22;25758;48.200;16.338;2022-09-09T06:53:50;18.10;99.90
40053;DHT22;25758;48.200;16.338;2022-09-09T06:58:42;18.30;99.90
40053;DHT22;25758;48.200;16.338;2022-09-09T07:01:16;18.30;99.90
40053;DHT22;25758;48.200;16.338;2022-09-09T07:03:46;18.40;99.90
40053;DHT22;25758;48.200;16.338;2022-09-09T07:06:15;18.50;99.90
40053;DHT22;25758;48.200;16.338;2022-09-09T07:08:43;18.60;99.90
40053;DHT22;25758;48.200;16.338;2022-09-09T07:11:08;18.70;99.90
40053;DHT22;25758;48.200;16.338;2022-09-09T07:13:35;18.70;99.90
40053;DHT22;25758;48.200;16.338;2022-09-09T07:16:05;18.80;99.90
40053;DHT22;25758;48.200;16.338;2022-09-09T07:18:31;18.80;99.90
40053;DHT22;25758;48.200;16.338;2022-09-09T07:20:57;18.90;99.90
40053;DHT22;25758;48.200;16.338;2022-09-09T07:23:23;18.90;99.90
40053;DHT22;25758;48.200;16.338;2022-09-09T07:25:49;19.00;99.90
40053;DHT22;25758;48.200;16.338;2022-09-09T07:28:16;19.00;99.90
40053;DHT22;25758;48.200;16.338;2022-09-09T07:30:42;19.00;99.90
40053;DHT22;25758;48.200;16.338;2022-09-09T07:33:08;19.10;99.90
40053;DHT22;25758;48.200;16.338;2022-09-09T07:35:35;19.20;99.90
40053;DHT22;25758;48.200;16.338;2022-09-09T07:38:02;19.20;99.90
40053;DHT22;25758;48.200;16.338;2022-09-09T07:40:32;19.30;99.90
40053;DHT22;25758;48.200;16.338;2022-09-09T07:42:58;19.30;99.90
40053;DHT22;25758;48.200;16.338;2022-09-09T07:45:24;19.40;99.90
40053;DHT22;25758;48.200;16.338;2022-09-09T07:47:50;19.40;99.90
40053;DHT22;25758;48.200;16.338;2022-09-09T07:50:16;17.60;99.90
40053;DHT22;25758;48.200;16.338;2022-09-09T07:52:41;19.60;99.90
40053;DHT22;25758;48.200;16.338;2022-09-09T07:55:07;19.60;99.90
40053;DHT22;25758;48.200;16.338;2022-09-09T07:57:32;19.70;99.90
40053;DHT22;25758;48.200;16.338;2022-09-09T07:59:58;19.80;99.90
40053;DHT22;25758;48.200;16.338;2022-09-09T08:02:24;19.80;99.90
40053;DHT22;25758;48.200;16.338;2022-09-09T08:04:51;19.80;99.90
40053;DHT22;25758;48.200;16.338;2022-09-09T08:07:17;19.90;99.90
40053;DHT22;25758;48.200;16.338;2022-09-09T08:09:43;19.90;99.90
40053;DHT22;25758;48.200;16.338;2022-09-09T08:12:09;20.00;99.90
40053;DHT22;25758;48.200;16.338;2022-09-09T08:14:36;20.10;99.90
40053;DHT22;25758;48.200;16.338;2022-09-09T08:17:01;20.10;99.90
40053;DHT22;25758;48.200;16.338;2022-09-09T08:19:27;20.20;99.90
40053;DHT22;25758;48.200;16.338;2022-09-09T08:21:55;20.30;99.90
40053;DHT22;25758;48.200;16.338;2022-09-09T08:24:21;20.30;99.90
40053;DHT22;25758;48.200;16.338;2022-09-09T08:26:49;20.40;99.90
40053;DHT22;25758;48.200;16.338;2022-09-09T08:29:15;20.60;99.90
40053;DHT22;25758;48.200;16.338;2022-09-09T08:31:47;20.70;99.90
40053;DHT22;25758;48.200;16.338;2022-09-09T08:34:13;20.90;99.60
40053;DHT22;25758;48.200;16.338;2022-09-09T08:36:44;21.20;99.10
40053;DHT22;25758;48.200;16.338;2022-09-09T08:39:12;21.50;98.60
40053;DHT22;25758;48.200;16.338;2022-09-09T08:58:16;22.90;95.70
40053;DHT22;25758;48.200;16.338;2022-09-09T09:00:57;23.10;95.70
40053;DHT22;25758;48.200;16.338;2022-09-09T09:11:40;23.50;93.70
40053;DHT22;25758;48.200;16.338;2022-09-09T09:14:12;23.70;93.40
40053;DHT22;25758;48.200;16.338;2022-09-09T09:19:17;24.10;92.90
40053;DHT22;25758;48.200;16.338;2022-09-09T09:21:48;24.20;92.10
40053;DHT22;25758;48.200;16.338;2022-09-09T09:24:22;24.20;92.20
40053;DHT22;25758;48.200;16.338;2022-09-09T09:26:49;24.30;92.60
40053;DHT22;25758;48.200;16.338;2022-09-09T09:29:19;24.60;92.10
40053;DHT22;25758;48.200;16.338;2022-09-09T09:31:53;24.90;91.10
40053;DHT22;25758;48.200;16.338;2022-09-09T09:34:20;25.10;90.40
40053;DHT22;25758;48.200;16.338;2022-09-09T09:36:57;25.40;89.20
40053;DHT22;25758;48.200;16.338;2022-09-09T09:39:25;25.40;88.40
40053;DHT22;25758;48.200;16.338;2022-09-09T09:41:52;25.50;89.00
40053;DHT22;25758;48.200;16.338;2022-09-09T09:44:30;25.60;89.40
40053;DHT22;25758;48.200;16.338;2022-09-09T09:47:18;25.30;87.70
40053;DHT22;25758;48.200;16.338;2022-09-09T09:49:54;25.40;88.30
40053;DHT22;25758;48.200;16.338;2022-09-09T09:52:26;25.40;88.90
40053;DHT22;25758;48.200;16.338;2022-09-09T09:54:54;25.50;89.80
40053;DHT22;25758;48.200;16.338;2022-09-09T09:57:24;25.60;90.30
40053;DHT22;25758;48.200;16.338;2022-09-09T10:00:16;25.70;88.80
40053;DHT22;25758;48.200;16.338;2022-09-09T10:02:44;25.50;88.50
40053;DHT22;25758;48.200;16.338;2022-09-09T10:07:47;25.20;89.90
40053;DHT22;25758;48.200;16.338;2022-09-09T10:10:34;25.30;89.20
40053;DHT22;25758;48.200;16.338;2022-09-09T10:13:23;25.40;88.80
40053;DHT22;25758;48.200;16.338;2022-09-09T10:18:36;25.70;88.50
40053;DHT22;25758;48.200;16.338;2022-09-09T10:27:00;25.90;88.40
40053;DHT22;25758;48.200;16.338;2022-09-09T10:32:10;26.00;87.70
40053;DHT22;25758;48.200;16.338;2022-09-09T10:49:06;25.50;89.50
40053;DHT22;25758;48.200;16.338;2022-09-09T10:51:45;25.50;90.20
40053;DHT22;25758;48.200;16.338;2022-09-09T10:54:41;25.60;90.30
40053;DHT22;25758;48.200;16.338;2022-09-09T10:57:25;25.60;90.40
40053;DHT22;25758;48.200;16.338;2022-09-09T10:59:56;25.80;90.10
40053;DHT22;25758;48.200;16.338;2022-09-09T11:02:30;25.90;90.00
40053;DHT22;25758;48.200;16.338;2022-09-09T11:08:14;25.90;89.10
40053;DHT22;25758;48.200;16.338;2022-09-09T11:14:09;25.60;90.00
40053;DHT22;25758;48.200;16.338;2022-09-09T11:21:44;25.40;90.00
40053;DHT22;25758;48.200;16.338;2022-09-09T11:24:17;25.40;90.00
40053;DHT22;25758;48.200;16.338;2022-09-09T11:40:25;25.10;88.10
40053;DHT22;25758;48.200;16.338;2022-09-09T11:43:04;25.00;86.20
40053;DHT22;25758;48.200;16.338;2022-09-09T11:45:33;25.00;86.70
40053;DHT22;25758;48.200;16.338;2022-09-09T11:48:02;25.00;87.70
40053;DHT22;25758;48.200;16.338;2022-09-09T11:50:30;25.00;87.90
40053;DHT22;25758;48.200;16.338;2022-09-09T11:53:18;25.00;88.10
40053;DHT22;25758;48.200;16.338;2022-09-09T11:55:46;25.10;88.70
40053;DHT22;25758;48.200;16.338;2022-09-09T12:00:39;25.10;87.60
40053;DHT22;25758;48.200;16.338;2022-09-09T12:03:45;25.10;88.20
40053;DHT22;25758;48.200;16.338;2022-09-09T12:06:19;25.10;88.30
40053;DHT22;25758;48.200;16.338;2022-09-09T12:08:50;25.10;88.20
40053;DHT22;25758;48.200;16.338;2022-09-09T12:11:29;25.00;88.00
40053;DHT22;25758;48.200;16.338;2022-09-09T12:13:58;24.90;88.00
40053;DHT22;25758;48.200;16.338;2022-09-09T12:16:37;25.00;88.40
40053;DHT22;25758;48.200;16.338;2022-09-09T12:19:07;25.00;88.10
40053;DHT22;25758;48.200;16.338;2022-09-09T12:24:34;25.10;87.80
40053;DHT22;25758;48.200;16.338;2022-09-09T12:27:18;25.20;87.50
40053;DHT22;25758;48.200;16.338;2022-09-09T12:29:55;25.20;86.80
40053;DHT22;25758;48.200;16.338;2022-09-09T12:32:25;25.20;86.60
40053;DHT22;25758;48.200;16.338;2022-09-09T12:34:55;25.30;85.90
40053;DHT22;25758;48.200;16.338;2022-09-09T12:38:45;25.30;85.90
40053;DHT22;25758;48.200;16.338;2022-09-09T12:40:40;25.30;86.50
40053;DHT22;25758;48.200;16.338;2022-09-09T12:43:20;25.30;85.50
40053;DHT22;25758;48.200;16.338;2022-09-09T12:45:47;25.20;85.00
40053;DHT22;25758;48.200;16.338;2022-09-09T12:48:17;25.20;85.10
40053;DHT22;25758;48.200;16.338;2022-09-09T12:50:51;25.10;84.20
40053;DHT22;25758;48.200;16.338;2022-09-09T12:53:25;25.00;84.70
40053;DHT22;25758;48.200;16.338;2022-09-09T12:58:29;24.90;85.80
40053;DHT22;25758;48.200;16.338;2022-09-09T13:00:58;24.90;85.80
40053;DHT22;25758;48.200;16.338;2022-09-09T13:03:26;24.80;85.40
40053;DHT22;25758;48.200;16.338;2022-09-09T13:05:53;24.80;85.10
40053;DHT22;25758;48.200;16.338;2022-09-09T13:08:19;24.80;84.50
40053;DHT22;25758;48.200;16.338;2022-09-09T13:10:53;24.70;85.00
40053;DHT22;25758;48.200;16.338;2022-09-09T13:13:27;24.70;85.60
40053;DHT22;25758;48.200;16.338;2022-09-09T13:15:57;24.60;85.80
40053;DHT22;25758;48.200;16.338;2022-09-09T13:18:38;24.60;85.80
40053;DHT22;25758;48.200;16.338;2022-09-09T13:21:06;24.60;85.70
40053;DHT22;25758;48.200;16.338;2022-09-09T13:23:33;24.50;85.90
40053;DHT22;25758;48.200;16.338;2022-09-09T13:26:06;24.50;86.00
40053;DHT22;25758;48.200;16.338;2022-09-09T13:28:33;24.40;85.90
40053;DHT22;25758;48.200;16.338;2022-09-09T13:31:01;24.40;86.30
40053;DHT22;25758;48.200;16.338;2022-09-09T13:33:31;24.40;85.80
40053;DHT22;25758;48.200;16.338;2022-09-09T13:36:02;24.30;85.80
40053;DHT22;25758;48.200;16.338;2022-09-09T13:38:32;24.30;86.20
40053;DHT22;25758;48.200;16.338;2022-09-09T13:41:00;24.20;86.20
40053;DHT22;25758;48.200;16.338;2022-09-09T13:43:46;24.20;85.70
40053;DHT22;25758;48.200;16.338;2022-09-09T13:46:30;24.10;86.00
40053;DHT22;25758;48.200;16.338;2022-09-09T13:49:02;24.10;86.80
40053;DHT22;25758;48.200;16.338;2022-09-09T13:51:45;24.00;86.60
40053;DHT22;25758;48.200;16.338;2022-09-09T13:54:13;24.00;86.70
40053;DHT22;25758;48.200;16.338;2022-09-09T13:56:41;24.00;86.70
40053;DHT22;25758;48.200;16.338;2022-09-09T13:59:15;23.90;86.70
40053;DHT22;25758;48.200;16.338;2022-09-09T14:01:41;23.90;87.50
40053;DHT22;25758;48.200;16.338;2022-09-09T14:04:07;23.90;87.40
40053;DHT22;25758;48.200;16.338;2022-09-09T14:06:34;23.80;87.20
40053;DHT22;25758;48.200;16.338;2022-09-09T14:09:02;23.80;87.10
40053;DHT22;25758;48.200;16.338;2022-09-09T14:11:28;23.80;87.10
40053;DHT22;25758;48.200;16.338;2022-09-09T14:13:54;23.70;87.30
40053;DHT22;25758;48.200;16.338;2022-09-09T14:16:19;23.70;87.00
40053;DHT22;25758;48.200;16.338;2022-09-09T14:18:47;23.60;87.30
40053;DHT22;25758;48.200;16.338;2022-09-09T14:21:13;23.60;87.40
40053;DHT22;25758;48.200;16.338;2022-09-09T14:23:39;23.60;88.30
40053;DHT22;25758;48.200;16.338;2022-09-09T14:26:06;23.50;89.30
40053;DHT22;25758;48.200;16.338;2022-09-09T14:28:32;23.50;91.30
40053;DHT22;25758;48.200;16.338;2022-09-09T14:31:03;23.40;93.20
40053;DHT22;25758;48.200;16.338;2022-09-09T14:33:29;23.20;94.80
40053;DHT22;25758;48.200;16.338;2022-09-09T14:36:00;23.00;96.20
40053;DHT22;25758;48.200;16.338;2022-09-09T14:38:29;22.90;96.90
40053;DHT22;25758;48.200;16.338;2022-09-09T14:40:55;22.80;97.10
40053;DHT22;25758;48.200;16.338;2022-09-09T14:43:21;22.80;97.30
40053;DHT22;25758;48.200;16.338;2022-09-09T14:45:47;22.70;97.40
40053;DHT22;25758;48.200;16.338;2022-09-09T14:48:16;22.70;97.90
40053;DHT22;25758;48.200;16.338;2022-09-09T14:50:42;22.70;97.90
40053;DHT22;25758;48.200;16.338;2022-09-09T14:53:08;22.70;98.20
40053;DHT22;25758;48.200;16.338;2022-09-09T14:55:35;22.70;98.30
40053;DHT22;25758;48.200;16.338;2022-09-09T14:58:01;22.70;98.40
40053;DHT22;25758;48.200;16.338;2022-09-09T15:00:27;22.60;98.40
40053;DHT22;25758;48.200;16.338;2022-09-09T15:02:53;22.60;98.50
40053;DHT22;25758;48.200;16.338;2022-09-09T15:05:19;22.70;98.40
40053;DHT22;25758;48.200;16.338;2022-09-09T15:07:45;22.70;98.40
40053;DHT22;25758;48.200;16.338;2022-09-09T15:10:11;22.60;98.40
40053;DHT22;25758;48.200;16.338;2022-09-09T15:12:37;22.60;98.50
40053;DHT22;25758;48.200;16.338;2022-09-09T15:15:04;22.60;98.70
40053;DHT22;25758;48.200;16.338;2022-09-09T15:17:30;22.60;98.90
40053;DHT22;25758;48.200;16.338;2022-09-09T15:19:56;22.50;99.10
40053;DHT22;25758;48.200;16.338;2022-09-09T15:22:22;22.50;99.00
40053;DHT22;25758;48.200;16.338;2022-09-09T15:24:49;22.50;99.20
40053;DHT22;25758;48.200;16.338;2022-09-09T15:27:15;22.50;99.10
40053;DHT22;25758;48.200;16.338;2022-09-09T15:29:41;22.50;99.20
40053;DHT22;25758;48.200;16.338;2022-09-09T15:32:07;22.40;99.10
40053;DHT22;25758;48.200;16.338;2022-09-09T15:34:33;22.40;99.10
40053;DHT22;25758;48.200;16.338;2022-09-09T15:36:58;22.30;99.00
40053;DHT22;25758;48.200;16.338;2022-09-09T15:39:25;22.30;99.00
40053;DHT22;25758;48.200;16.338;2022-09-09T15:41:51;22.30;98.90
40053;DHT22;25758;48.200;16.338;2022-09-09T15:44:17;22.30;98.90
40053;DHT22;25758;48.200;16.338;2022-09-09T15:46:52;22.20;99.00
40053;DHT22;25758;48.200;16.338;2022-09-09T15:49:23;22.20;99.10
40053;DHT22;25758;48.200;16.338;2022-09-09T15:51:55;22.20;99.10
40053;DHT22;25758;48.200;16.338;2022-09-09T15:54:23;22.20;99.20
40053;DHT22;25758;48.200;16.338;2022-09-09T15:56:52;22.10;99.20
40053;DHT22;25758;48.200;16.338;2022-09-09T15:59:18;22.10;99.20
40053;DHT22;25758;48.200;16.338;2022-09-09T16:01:44;22.10;99.30
40053;DHT22;25758;48.200;16.338;2022-09-09T16:04:10;22.00;99.50
40053;DHT22;25758;48.200;16.338;2022-09-09T16:06:36;22.00;99.60
40053;DHT22;25758;48.200;16.338;2022-09-09T16:09:04;22.00;99.60
40053;DHT22;25758;48.200;16.338;2022-09-09T16:11:32;22.00;99.80
40053;DHT22;25758;48.200;16.338;2022-09-09T16:13:59;21.90;99.80
40053;DHT22;25758;48.200;16.338;2022-09-09T16:16:27;21.80;99.80
40053;DHT22;25758;48.200;16.338;2022-09-09T16:18:56;21.80;99.90
40053;DHT22;25758;48.200;16.338;2022-09-09T16:21:27;21.80;99.90
40053;DHT22;25758;48.200;16.338;2022-09-09T16:23:57;21.70;99.90
40053;DHT22;25758;48.200;16.338;2022-09-09T16:26:25;21.70;99.90
40053;DHT22;25758;48.200;16.338;2022-09-09T16:28:51;21.60;99.90
40053;DHT22;25758;48.200;16.338;2022-09-09T16:31:21;21.50;99.90
40053;DHT22;25758;48.200;16.338;2022-09-09T16:33:48;21.50;99.90
40053;DHT22;25758;48.200;16.338;2022-09-09T16:36:20;21.40;99.90
40053;DHT22;25758;48.200;16.338;2022-09-09T16:38:45;21.40;99.90
40053;DHT22;25758;48.200;16.338;2022-09-09T16:41:12;21.30;99.90
40053;DHT22;25758;48.200;16.338;2022-09-09T16:43:40;21.40;99.90
40053;DHT22;25758;48.200;16.338;2022-09-09T16:46:17;21.30;99.90
40053;DHT22;25758;48.200;16.338;2022-09-09T16:48:44;21.30;99.90
40053;DHT22;25758;48.200;16.338;2022-09-09T16:53:41;21.30;99.90
40053;DHT22;25758;48.200;16.338;2022-09-09T16:56:14;21.20;99.90
40053;DHT22;25758;48.200;16.338;2022-09-09T16:58:41;21.20;99.90
40053;DHT22;25758;48.200;16.338;2022-09-09T17:01:08;21.00;99.90
40053;DHT22;25758;48.200;16.338;2022-09-09T17:03:34;20.90;99.90
40053;DHT22;25758;48.200;16.338;2022-09-09T17:05:59;20.80;99.90
40053;DHT22;25758;48.200;16.338;2022-09-09T17:08:31;20.80;99.90
40053;DHT22;25758;48.200;16.338;2022-09-09T17:10:58;20.70;99.90
40053;DHT22;25758;48.200;16.338;2022-09-09T17:13:24;20.70;99.90
40053;DHT22;25758;48.200;16.338;2022-09-09T17:15:50;20.60;99.90
40053;DHT22;25758;48.200;16.338;2022-09-09T17:18:16;20.60;99.90
40053;DHT22;25758;48.200;16.338;2022-09-09T17:20:42;20.40;99.90
40053;DHT22;25758;48.200;16.338;2022-09-09T17:23:10;20.40;99.90
40053;DHT22;25758;48.200;16.338;2022-09-09T17:25:36;20.30;99.90
40053;DHT22;25758;48.200;16.338;2022-09-09T17:28:03;20.10;99.90
40053;DHT22;25758;48.200;16.338;2022-09-09T17:30:38;19.90;99.90
40053;DHT22;25758;48.200;16.338;2022-09-09T17:33:04;19.80;99.90
40053;DHT22;25758;48.200;16.338;2022-09-09T17:35:30;19.70;99.90
40053;DHT22;25758;48.200;16.338;2022-09-09T17:37:56;19.70;99.90
40053;DHT22;25758;48.200;16.338;2022-09-09T17:40:23;19.60;99.90
40053;DHT22;25758;48.200;16.338;2022-09-09T17:42:48;19.60;99.90